Terminal Aerodrome Forecast
Issued by NWS Des Moines, IA

Home | Current Version | Previous Version | Text Only | Print | Product List | Glossary On
Versions: 1 2 3 4 5 6 7 8 9 10 11 12 13 14 15 16 17 18
000
FTUS43 KDMX 241138
TAFALO
TAF
KALO 241138Z 2412/2512 03022G31KT P6SM -DZ SCT007 OVC012
     FM241400 02020G29KT 4SM -FZDZ SCT007 OVC012
     FM241600 01018G27KT 2SM -FZDZSN BLSN OVC010
     FM241900 01019G30KT 2SM -SN BLSN OVC010
     FM250500 33018G25KT 5SM BLSN BKN015
     FM250700 33018G25KT P6SM BKN025=

USA.gov is the U.S. government's official web portal to all federal, state and local government web resources and services.